Time;durP1;ratioP1;P1;durP2;ratioP2;P2;SDS_P1;SDS_P2;PMS_P1;PMS_P2;Temp;Humidity;BMP_temperature;BMP_pressure;BME280_temperature;BME280_humidity;BME280_pressure;Samples;Min_cycle;Max_cycle;Signal;HPM_P1;HPM_P2
2021/05/15 00:00:42;;;;;;;5.82;3.67;;;;;;;8.43;47.15;100725.13;4982244;28;20126;-69
2021/05/15 00:03:07;;;;;;;7.47;3.08;;;;;;;8.38;47.03;100719.22;4982162;28;20034;-70
2021/05/15 00:05:34;;;;;;;7.82;3.63;;;;;;;8.38;46.84;100727.88;4982744;28;20100;-69
2021/05/15 00:08:03;;;;;;;2.92;2.17;;;;;;;8.57;46.78;100713.31;4982617;28;20030;-70
2021/05/15 00:10:30;;;;;;;8.25;2.22;;;;;;;8.55;46.53;100714.28;4997946;28;20061;-69
2021/05/15 00:12:55;;;;;;;4.82;3.03;;;;;;;8.45;46.41;100718.97;4983557;28;20038;-70
2021/05/15 00:15:21;;;;;;;5.72;3.70;;;;;;;8.40;46.63;100714.81;4984339;28;20026;-69
2021/05/15 00:17:46;;;;;;;8.07;3.35;;;;;;;8.49;47.24;100711.88;4992630;28;20038;-69
2021/05/15 00:20:15;;;;;;;5.13;2.80;;;;;;;8.32;46.92;100713.31;4985073;28;20073;-68
2021/05/15 00:22:42;;;;;;;6.75;3.35;;;;;;;8.49;46.57;100704.91;4997324;28;20570;-68
2021/05/15 00:25:10;;;;;;;7.35;3.25;;;;;;;8.49;46.93;100714.47;4981624;28;20411;-68
2021/05/15 00:27:36;;;;;;;5.75;2.85;;;;;;;8.68;46.36;100715.56;4980940;28;20030;-69
2021/05/15 00:30:07;;;;;;;3.05;2.75;;;;;;;8.72;46.37;100711.16;4983155;28;20121;-68
2021/05/15 00:32:33;;;;;;;5.70;2.63;;;;;;;8.62;46.61;100709.72;4981961;28;20093;-69
2021/05/15 00:34:59;;;;;;;5.47;2.83;;;;;;;8.44;46.99;100706.81;4988059;28;20129;-70
2021/05/15 00:37:24;;;;;;;12.85;3.20;;;;;;;8.14;47.59;100711.31;4984758;28;20621;-71
2021/05/15 00:39:50;;;;;;;7.40;3.28;;;;;;;7.82;48.14;100712.31;4986967;28;20038;-68
2021/05/15 00:42:16;;;;;;;3.67;2.80;;;;;;;8.24;47.35;100715.31;4986013;28;20054;-69
2021/05/15 00:44:45;;;;;;;6.70;4.13;;;;;;;8.47;47.07;100711.97;5000757;28;20476;-68
2021/05/15 00:47:16;;;;;;;9.98;3.20;;;;;;;8.40;47.56;100714.81;4986465;28;20053;-69
2021/05/15 00:49:43;;;;;;;6.63;3.33;;;;;;;8.34;47.05;100710.66;4984824;28;20180;-69
2021/05/15 00:52:10;;;;;;;5.55;2.85;;;;;;;8.30;47.46;100715.09;4986464;28;20034;-68
2021/05/15 00:54:38;;;;;;;10.75;3.35;;;;;;;8.08;47.81;100714.09;4985029;28;20042;-70
2021/05/15 00:57:05;;;;;;;7.13;3.20;;;;;;;8.19;47.34;100708.56;4984408;28;20064;-70
2021/05/15 00:59:31;;;;;;;5.05;2.80;;;;;;;8.24;47.91;100715.31;4984823;28;20045;-68
2021/05/15 01:01:56;;;;;;;5.70;2.88;;;;;;;7.45;48.62;100706.47;4986137;28;20034;-70
2021/05/15 01:04:22;;;;;;;4.30;2.40;;;;;;;7.99;47.64;100707.44;4969287;28;20042;-68
2021/05/15 01:06:48;;;;;;;6.53;2.58;;;;;;;7.96;47.45;100704.94;4985267;28;20030;-69
2021/05/15 01:09:13;;;;;;;6.35;3.10;;;;;;;7.94;47.77;100701.53;4985001;28;20581;-69
2021/05/15 01:11:38;;;;;;;4.97;2.63;;;;;;;7.98;47.81;100703.16;4985914;28;20104;-69
2021/05/15 01:14:04;;;;;;;5.32;2.53;;;;;;;7.73;47.61;100697.84;4969554;28;20068;-69
2021/05/15 01:16:31;;;;;;;3.25;2.45;;;;;;;7.25;49.26;100701.84;4992941;28;20570;-68
2021/05/15 01:19:01;;;;;;;8.00;3.05;;;;;;;7.86;47.48;100696.56;4985533;28;20054;-70
2021/05/15 01:21:26;;;;;;;4.25;2.78;;;;;;;8.08;46.69;100694.13;4985161;28;20080;-69
2021/05/15 01:23:52;;;;;;;8.07;2.85;;;;;;;8.18;46.76;100699.03;4985586;28;20499;-69
2021/05/15 01:26:19;;;;;;;6.82;2.65;;;;;;;8.09;46.65;100692.38;4989791;28;20284;-69
2021/05/15 01:28:48;;;;;;;8.15;2.78;;;;;;;8.20;46.76;100702.44;4999230;28;20237;-69
2021/05/15 01:31:14;;;;;;;8.75;2.88;;;;;;;8.02;46.76;100693.47;4985303;28;20066;-70
2021/05/15 01:33:40;;;;;;;4.72;2.80;;;;;;;8.11;46.66;100693.16;4984605;28;20073;-70
2021/05/15 01:36:06;;;;;;;6.82;2.95;;;;;;;8.11;46.82;100698.38;4984936;28;20030;-70
2021/05/15 01:38:32;;;;;;;6.78;3.78;;;;;;;8.35;46.70;100696.72;4983140;28;20745;-70
2021/05/15 01:41:06;;;;;;;7.00;2.25;;;;;;;8.35;46.62;100687.16;4979968;28;20074;-71
2021/05/15 01:43:33;;;;;;;3.00;2.30;;;;;;;8.38;46.50;100685.34;4987091;28;20038;-68
2021/05/15 01:45:58;;;;;;;5.88;2.80;;;;;;;8.43;46.37;100686.91;4984732;28;20034;-69
2021/05/15 01:48:24;;;;;;;7.68;2.05;;;;;;;8.47;46.08;100685.91;4983817;28;20093;-71
2021/05/15 01:51:01;;;;;;;8.82;3.17;;;;;;;8.43;46.33;100684.31;4985099;28;20041;-69
2021/05/15 01:53:29;;;;;;;4.88;3.08;;;;;;;8.48;46.12;100679.78;4981824;28;20128;-70
2021/05/15 01:55:55;;;;;;;6.03;2.60;;;;;;;8.55;46.21;100668.25;4985040;28;20030;-69
2021/05/15 01:58:21;;;;;;;5.22;2.83;;;;;;;8.58;45.76;100677.69;4999047;28;20040;-70
2021/05/15 02:00:47;;;;;;;8.73;3.13;;;;;;;8.52;46.38;100673.56;4984672;28;20101;-69
2021/05/15 02:03:12;;;;;;;9.57;3.25;;;;;;;8.44;46.35;100670.38;4968179;28;20088;-70
2021/05/15 02:05:38;;;;;;;4.85;2.85;;;;;;;8.18;46.63;100673.84;4985180;28;20135;-69
2021/05/15 02:08:04;;;;;;;6.75;2.33;;;;;;;8.42;46.28;100664.34;4985524;28;20041;-70
2021/05/15 02:10:29;;;;;;;8.57;3.30;;;;;;;8.54;46.19;100660.50;4974709;28;20038;-70
2021/05/15 02:12:55;;;;;;;11.05;3.45;;;;;;;8.49;46.35;100665.84;4991856;28;20034;-70
2021/05/15 02:15:20;;;;;;;5.85;3.88;;;;;;;8.48;46.35;100658.94;4987305;28;20052;-70
2021/05/15 02:17:46;;;;;;;8.70;3.90;;;;;;;8.61;46.08;100655.94;4999158;28;20073;-69
2021/05/15 02:20:12;;;;;;;6.97;3.05;;;;;;;8.66;46.27;100664.41;4968882;28;20026;-69
2021/05/15 02:22:38;;;;;;;6.63;3.40;;;;;;;8.69;46.25;100649.50;4984608;28;20038;-70
2021/05/15 02:25:04;;;;;;;7.10;3.47;;;;;;;8.74;46.25;100649.41;4986484;28;20034;-70
2021/05/15 02:27:29;;;;;;;5.72;3.53;;;;;;;8.78;46.25;100648.38;4999015;28;20038;-69
2021/05/15 02:29:55;;;;;;;5.10;2.75;;;;;;;8.76;45.80;100639.75;4983908;28;20069;-68
2021/05/15 02:32:20;;;;;;;6.63;2.88;;;;;;;8.71;46.11;100639.06;4983044;28;20042;-69
2021/05/15 02:34:46;;;;;;;8.02;2.67;;;;;;;8.70;46.38;100643.41;4965679;28;20065;-69
2021/05/15 02:37:11;;;;;;;5.93;2.85;;;;;;;8.72;46.39;100639.03;4984770;28;20100;-68
2021/05/15 02:39:37;;;;;;;5.68;2.58;;;;;;;8.77;46.22;100641.47;4985522;28;20161;-69
2021/05/15 02:42:02;;;;;;;8.65;3.80;;;;;;;8.87;45.78;100649.78;4983268;28;20037;-69
2021/05/15 02:44:28;;;;;;;7.03;3.45;;;;;;;8.87;45.93;100655.84;4983970;28;20425;-69
2021/05/15 02:46:53;;;;;;;5.43;2.95;;;;;;;8.81;45.96;100648.28;4982204;28;20044;-69
2021/05/15 02:49:19;;;;;;;5.50;2.50;;;;;;;8.76;45.68;100639.75;4984011;28;20035;-69
2021/05/15 02:51:44;;;;;;;10.80;3.97;;;;;;;8.75;46.16;100644.13;4981302;28;20121;-70
2021/05/15 02:54:10;;;;;;;5.65;3.35;;;;;;;8.76;46.05;100637.16;4984242;28;20030;-69
2021/05/15 02:56:35;;;;;;;9.38;3.15;;;;;;;8.76;46.18;100637.16;4983199;28;20092;-70
2021/05/15 02:59:01;;;;;;;8.63;3.17;;;;;;;8.76;46.15;100627.59;4981069;28;20347;-69
2021/05/15 03:01:26;;;;;;;7.18;4.13;;;;;;;8.71;46.17;100618.22;4982885;28;20191;-70
2021/05/15 03:03:52;;;;;;;10.98;4.20;;;;;;;8.64;46.46;100619.34;4999141;28;20476;-68
2021/05/15 03:06:18;;;;;;;8.18;2.58;;;;;;;8.72;46.41;100617.34;4984908;28;20053;-69
2021/05/15 03:08:44;;;;;;;7.90;2.83;;;;;;;8.71;46.58;100616.47;4984051;28;20041;-69
2021/05/15 03:11:10;;;;;;;9.02;3.20;;;;;;;8.81;46.56;100611.78;4992219;28;20033;-70
2021/05/15 03:13:35;;;;;;;5.93;3.10;;;;;;;8.90;46.61;100610.59;4986415;28;20038;-70
2021/05/15 03:16:01;;;;;;;11.15;3.72;;;;;;;8.97;46.36;100615.50;4985672;28;20026;-68
2021/05/15 03:18:26;;;;;;;10.43;3.17;;;;;;;8.91;45.98;100614.91;4981691;28;20081;-69
2021/05/15 03:20:52;;;;;;;8.57;3.30;;;;;;;8.95;46.25;100612.13;4999299;28;20069;-69
2021/05/15 03:23:18;;;;;;;5.13;2.42;;;;;;;8.79;46.17;100615.38;4981387;28;20037;-70
2021/05/15 03:25:43;;;;;;;10.40;3.78;;;;;;;8.54;46.61;100618.81;4984221;28;20050;-68
2021/05/15 03:28:09;;;;;;;10.25;3.67;;;;;;;8.59;47.62;100621.25;4981732;28;20041;-69
2021/05/15 03:30:34;;;;;;;6.82;3.63;;;;;;;8.73;47.36;100622.47;4983084;28;20152;-70
2021/05/15 03:32:59;;;;;;;11.98;4.57;;;;;;;8.79;46.79;100624.03;4983019;28;20045;-68
2021/05/15 03:35:26;;;;;;;9.25;4.07;;;;;;;8.79;46.68;100613.59;4998115;28;20034;-69
2021/05/15 03:37:52;;;;;;;5.35;2.95;;;;;;;8.88;46.89;100617.63;4983578;28;20030;-70
2021/05/15 03:40:18;;;;;;;6.68;3.80;;;;;;;9.00;46.42;100613.72;4982392;28;20676;-68
2021/05/15 03:42:43;;;;;;;9.68;4.30;;;;;;;8.91;46.05;100612.28;4969039;28;20039;-69
2021/05/15 03:45:09;;;;;;;9.48;4.70;;;;;;;8.80;46.73;100604.00;4983126;28;20038;-70
2021/05/15 03:47:36;;;;;;;7.63;3.85;;;;;;;8.70;46.82;100613.91;4983607;28;20376;-69
2021/05/15 03:50:02;;;;;;;7.72;3.40;;;;;;;8.73;47.32;100613.81;4982674;28;20049;-69
2021/05/15 03:52:27;;;;;;;7.65;3.58;;;;;;;8.65;47.26;100600.19;4982224;28;20473;-69
2021/05/15 03:54:53;;;;;;;10.82;3.78;;;;;;;8.59;46.77;100601.25;4983029;28;20038;-69
2021/05/15 03:57:18;;;;;;;7.57;3.53;;;;;;;8.55;47.34;100608.31;4982812;28;20113;-69
2021/05/15 03:59:44;;;;;;;9.48;3.92;;;;;;;8.52;47.71;100603.22;4982493;28;20480;-70
2021/05/15 04:02:09;;;;;;;6.68;3.45;;;;;;;8.54;47.94;100596.22;4997075;28;20092;-70
2021/05/15 04:04:37;;;;;;;5.70;3.42;;;;;;;8.60;47.53;100589.09;4999318;28;20038;-69
2021/05/15 04:07:04;;;;;;;7.20;3.65;;;;;;;8.77;47.49;100594.56;4984378;28;20046;-68
2021/05/15 04:09:29;;;;;;;9.27;3.92;;;;;;;8.79;47.07;100589.31;4984271;28;20050;-69
2021/05/15 04:11:55;;;;;;;7.28;3.63;;;;;;;8.71;46.88;100594.78;4984241;28;20081;-69
2021/05/15 04:14:25;;;;;;;11.93;4.50;;;;;;;8.72;46.62;100593.88;4986965;28;20038;-70
2021/05/15 04:19:32;;;;;;;13.07;3.70;;;;;;;8.81;46.35;100593.53;4986951;28;20034;-68
2021/05/15 04:21:57;;;;;;;8.95;3.85;;;;;;;8.81;46.68;100595.28;4979305;28;20578;-68
2021/05/15 04:24:25;;;;;;;10.95;4.00;;;;;;;8.75;46.93;100588.56;5003110;28;20117;-68
2021/05/15 04:26:59;;;;;;;7.47;2.92;;;;;;;8.60;47.19;100596.91;4985776;28;20822;-68
2021/05/15 04:29:25;;;;;;;13.30;3.67;;;;;;;8.75;46.46;100592.00;4986026;28;20050;-69
2021/05/15 04:31:58;;;;;;;10.50;4.70;;;;;;;8.75;47.43;100588.56;4986995;28;20069;-68
2021/05/15 04:34:28;;;;;;;12.75;3.80;;;;;;;8.74;47.39;100592.09;4987179;28;20060;-69
2021/05/15 04:36:53;;;;;;;15.35;5.68;;;;;;;8.70;46.76;100585.25;5001236;28;20100;-68
2021/05/15 04:39:19;;;;;;;9.23;4.07;;;;;;;8.81;47.19;100590.06;4986495;28;20030;-68
2021/05/15 04:41:44;;;;;;;10.77;3.45;;;;;;;8.97;46.94;100592.06;5000945;28;20085;-68
2021/05/15 04:44:10;;;;;;;7.32;3.53;;;;;;;9.18;46.33;100589.53;4987524;28;20035;-68
2021/05/15 04:46:35;;;;;;;14.70;4.28;;;;;;;9.25;45.53;100587.53;4984355;28;20053;-68
2021/05/15 04:49:01;;;;;;;11.88;4.35;;;;;;;9.14;45.72;100586.22;4986603;28;20451;-68
2021/05/15 04:51:27;;;;;;;7.90;3.20;;;;;;;9.24;46.52;100585.84;4985092;28;20034;-68
2021/05/15 04:53:52;;;;;;;10.27;3.78;;;;;;;9.45;45.64;100587.59;5001711;28;20041;-68
2021/05/15 04:56:18;;;;;;;7.53;4.45;;;;;;;9.53;45.39;100584.69;4988325;28;20421;-68
2021/05/15 04:58:45;;;;;;;11.68;4.32;;;;;;;9.55;45.47;100593.31;4986152;28;20026;-69
2021/05/15 05:01:10;;;;;;;10.35;4.43;;;;;;;9.48;45.93;100590.09;4985251;28;20074;-69
2021/05/15 05:03:36;;;;;;;10.52;3.92;;;;;;;9.44;45.27;100590.28;4991529;28;20065;-68
2021/05/15 05:06:02;;;;;;;8.23;4.00;;;;;;;9.55;46.17;100590.72;4989051;28;20038;-69
2021/05/15 05:08:27;;;;;;;15.75;5.85;;;;;;;9.56;45.23;100589.78;5008716;28;20049;-68
2021/05/15 05:10:53;;;;;;;13.13;6.93;;;;;;;9.34;44.89;100572.41;4973819;28;20049;-69
2021/05/15 05:13:19;;;;;;;8.73;4.40;;;;;;;9.24;46.02;100580.63;4976481;28;20038;-68
2021/05/15 05:15:45;;;;;;;7.93;4.05;;;;;;;9.36;45.91;100580.97;4986163;28;20506;-69
2021/05/15 05:18:11;;;;;;;12.13;4.55;;;;;;;9.47;46.01;100596.22;4985840;28;20475;-68
2021/05/15 05:20:36;;;;;;;9.55;5.10;;;;;;;9.46;45.37;100585.84;4987800;28;20041;-69
2021/05/15 05:23:02;;;;;;;10.25;5.75;;;;;;;9.36;45.97;100594.03;4984850;28;20038;-68
2021/05/15 05:25:27;;;;;;;9.20;4.95;;;;;;;9.36;45.83;100580.13;4969986;28;20403;-68
2021/05/15 05:27:53;;;;;;;13.73;6.55;;;;;;;9.44;45.16;100582.47;5018199;28;21023;-68
2021/05/15 05:30:20;;;;;;;13.25;5.45;;;;;;;9.52;45.47;100580.38;4984738;28;20092;-68
2021/05/15 05:32:48;;;;;;;13.07;5.18;;;;;;;9.73;45.35;100576.91;5016379;28;20512;-69
2021/05/15 05:35:14;;;;;;;13.52;6.47;;;;;;;10.19;44.48;100575.00;4984785;28;20629;-69
2021/05/15 05:37:40;;;;;;;14.07;6.03;;;;;;;10.49;42.84;100585.03;5000880;28;20037;-69
2021/05/15 05:40:10;;;;;;;12.52;5.28;;;;;;;10.09;44.49;100591.13;4984838;28;20022;-68
2021/05/15 05:42:36;;;;;;;12.52;6.20;;;;;;;10.18;44.15;100586.34;4985884;28;20069;-69
2021/05/15 05:45:04;;;;;;;13.30;5.72;;;;;;;9.95;43.98;100596.94;4987107;28;20046;-69
2021/05/15 05:47:30;;;;;;;11.68;6.00;;;;;;;9.79;44.32;100594.97;5000758;28;20100;-69
2021/05/15 05:49:55;;;;;;;11.80;6.13;;;;;;;9.85;45.15;100600.81;4984781;28;20038;-68
2021/05/15 05:52:21;;;;;;;13.88;5.38;;;;;;;9.62;45.32;100599.97;4986003;28;20030;-69
2021/05/15 05:54:46;;;;;;;10.30;5.43;;;;;;;9.60;44.93;100607.00;4969542;28;20034;-68
2021/05/15 05:57:12;;;;;;;15.65;6.22;;;;;;;9.65;44.77;100602.44;4984337;28;20062;-68
2021/05/15 05:59:37;;;;;;;12.30;5.60;;;;;;;9.32;44.90;100610.72;5000140;28;20096;-68
2021/05/15 06:02:03;;;;;;;11.15;5.38;;;;;;;8.68;47.15;100602.69;4971109;28;20149;-69
2021/05/15 06:04:28;;;;;;;11.65;6.60;;;;;;;9.48;45.78;100592.72;4988388;28;20050;-68
2021/05/15 06:06:54;;;;;;;11.13;5.72;;;;;;;9.71;44.94;100594.38;4989541;28;20045;-67
2021/05/15 06:09:20;;;;;;;12.05;5.75;;;;;;;9.91;44.49;100584.91;4989370;28;20046;-69
2021/05/15 06:11:46;;;;;;;16.25;6.55;;;;;;;10.09;44.10;100578.06;4983402;28;20034;-69
2021/05/15 06:14:12;;;;;;;9.20;5.45;;;;;;;10.32;43.14;100567.47;4984476;28;20077;-68
2021/05/15 06:16:38;;;;;;;11.00;5.80;;;;;;;11.88;41.10;100567.16;4984123;28;20069;-68
2021/05/15 06:19:03;;;;;;;11.63;6.03;;;;;;;14.11;36.24;100548.88;4985313;28;20038;-68
2021/05/15 06:21:29;;;;;;;19.85;8.82;;;;;;;15.72;32.20;100551.00;4983353;28;20094;-68
2021/05/15 06:23:54;;;;;;;14.05;6.93;;;;;;;16.60;30.01;100567.00;4984256;28;20034;-67
2021/05/15 06:26:20;;;;;;;9.27;4.80;;;;;;;14.91;32.88;100557.13;4984783;28;20547;-68
2021/05/15 06:28:45;;;;;;;15.95;6.30;;;;;;;13.89;34.96;100558.00;4983890;28;20081;-68
2021/05/15 06:31:11;;;;;;;7.93;4.95;;;;;;;13.77;35.29;100561.38;4984872;28;20069;-68
2021/05/15 06:33:37;;;;;;;10.43;6.00;;;;;;;14.13;34.48;100553.09;4981853;28;20034;-68
2021/05/15 06:36:03;;;;;;;9.73;4.78;;;;;;;13.78;35.48;100552.53;4984249;28;20030;-68
2021/05/15 06:38:28;;;;;;;9.57;5.25;;;;;;;12.56;36.21;100557.56;4981866;28;20034;-70
2021/05/15 06:40:54;;;;;;;11.20;6.10;;;;;;;13.73;34.72;100557.22;4984677;28;20552;-69
2021/05/15 06:43:20;;;;;;;11.27;5.30;;;;;;;13.59;35.45;100549.31;4983936;28;20042;-70
2021/05/15 06:45:45;;;;;;;10.30;6.05;;;;;;;13.86;35.51;100560.00;4982818;28;20059;-68
2021/05/15 06:48:11;;;;;;;13.35;6.43;;;;;;;14.50;34.89;100556.16;4982374;28;20038;-68
2021/05/15 06:50:36;;;;;;;14.20;7.00;;;;;;;15.41;33.16;100557.47;4983835;28;20038;-68
2021/05/15 06:53:02;;;;;;;15.70;6.70;;;;;;;14.67;35.20;100555.09;4967247;28;20488;-68
2021/05/15 06:55:28;;;;;;;12.13;7.00;;;;;;;14.03;34.96;100538.81;4982483;28;20077;-69
2021/05/15 06:57:54;;;;;;;12.23;6.85;;;;;;;14.58;34.15;100550.41;4985021;28;20049;-69
2021/05/15 07:00:21;;;;;;;14.15;7.80;;;;;;;15.15;33.78;100545.03;4985214;28;20680;-68
2021/05/15 07:02:47;;;;;;;16.60;6.80;;;;;;;16.43;31.61;100544.44;4987674;28;20022;-68
2021/05/15 07:05:13;;;;;;;17.10;7.53;;;;;;;17.09;30.61;100539.75;4991283;28;20049;-68
2021/05/15 07:07:38;;;;;;;11.63;6.68;;;;;;;16.27;30.84;100544.66;4996490;28;20039;-69
2021/05/15 07:10:05;;;;;;;17.55;7.47;;;;;;;15.53;32.35;100554.88;4983908;28;20049;-69
2021/05/15 07:12:30;;;;;;;12.43;6.28;;;;;;;14.73;33.19;100544.19;4982162;28;20404;-69
2021/05/15 07:14:55;;;;;;;10.02;6.50;;;;;;;14.29;34.24;100537.22;4984075;28;20034;-68
2021/05/15 07:17:25;;;;;;;11.45;6.60;;;;;;;13.67;35.89;100539.19;4983821;28;20679;-68
2021/05/15 07:19:55;;;;;;;10.65;5.85;;;;;;;13.57;35.43;100535.44;4983381;28;20393;-68
2021/05/15 07:22:24;;;;;;;11.57;6.88;;;;;;;13.29;35.31;100542.22;4982550;28;20384;-69
2021/05/15 07:24:50;;;;;;;14.98;7.03;;;;;;;12.97;36.71;100541.41;4982285;28;20053;-68
2021/05/15 07:27:16;;;;;;;11.75;6.28;;;;;;;13.44;36.49;100530.00;4981893;28;20145;-68
2021/05/15 07:29:42;;;;;;;9.40;5.45;;;;;;;13.69;34.94;100525.03;4980906;28;20053;-70
2021/05/15 07:32:08;;;;;;;11.77;6.75;;;;;;;13.70;35.17;100536.41;4982233;28;20038;-68
2021/05/15 07:34:33;;;;;;;14.65;6.68;;;;;;;12.91;36.78;100537.34;4982828;28;20044;-68
2021/05/15 07:36:59;;;;;;;10.88;7.00;;;;;;;12.33;37.54;100535.22;4982355;28;20037;-68
2021/05/15 07:39:25;;;;;;;10.85;5.78;;;;;;;12.16;38.66;100536.94;4982851;28;20749;-68
2021/05/15 07:41:51;;;;;;;13.13;5.18;;;;;;;12.17;38.14;100530.78;4981586;28;20041;-68
2021/05/15 07:44:18;;;;;;;18.48;6.82;;;;;;;11.90;38.94;100521.72;4997227;28;20473;-68
2021/05/15 07:46:43;;;;;;;10.93;7.30;;;;;;;12.11;39.21;100519.75;4968089;28;20108;-69
2021/05/15 07:49:09;;;;;;;10.07;6.18;;;;;;;11.96;38.72;100508.34;4965962;28;20153;-68
2021/05/15 07:51:34;;;;;;;11.88;6.20;;;;;;;12.04;37.72;100511.38;4981530;28;20077;-68
2021/05/15 07:54:01;;;;;;;13.82;6.38;;;;;;;11.93;38.21;100509.31;4987371;28;20038;-68
2021/05/15 07:56:27;;;;;;;16.60;6.28;;;;;;;12.25;37.92;100499.78;4981826;28;20038;-69
2021/05/15 07:58:52;;;;;;;12.10;7.22;;;;;;;13.02;37.47;100502.66;4983828;28;20061;-68
2021/05/15 08:01:18;;;;;;;13.43;6.63;;;;;;;13.65;35.23;100499.03;4999896;28;20022;-69
2021/05/15 08:03:44;;;;;;;9.23;4.85;;;;;;;13.91;33.86;100490.47;4991003;28;20408;-70
2021/05/15 08:06:09;;;;;;;8.38;4.82;;;;;;;13.93;34.59;100487.75;4985370;28;20071;-68
2021/05/15 08:08:36;;;;;;;12.93;6.25;;;;;;;14.07;34.48;100486.91;4983107;28;20480;-69
2021/05/15 08:11:02;;;;;;;10.27;5.13;;;;;;;14.08;34.25;100494.72;4983930;28;20361;-68
2021/05/15 08:13:28;;;;;;;12.57;6.80;;;;;;;13.37;35.61;100498.00;4980502;28;20042;-68
2021/05/15 08:15:53;;;;;;;11.50;6.38;;;;;;;13.24;35.32;100503.13;4984058;28;20026;-68
2021/05/15 08:18:19;;;;;;;11.00;5.60;;;;;;;13.28;35.36;100503.78;4978853;28;20058;-68
2021/05/15 08:20:46;;;;;;;12.23;6.80;;;;;;;13.28;36.25;100493.31;4967286;28;20026;-68
2021/05/15 08:23:11;;;;;;;11.32;6.28;;;;;;;13.92;34.90;100492.16;4979099;28;20035;-68
2021/05/15 08:25:37;;;;;;;10.95;7.18;;;;;;;14.50;33.31;100494.81;4978980;28;20043;-68
2021/05/15 08:28:09;;;;;;;19.35;7.25;;;;;;;14.64;33.73;100500.06;4978094;28;20038;-68
2021/05/15 08:30:35;;;;;;;14.95;7.18;;;;;;;14.65;34.24;100493.84;4978137;28;20125;-68
2021/05/15 08:33:00;;;;;;;14.90;6.82;;;;;;;15.41;34.96;100489.84;4981653;28;20164;-68
2021/05/15 08:35:26;;;;;;;12.90;6.65;;;;;;;15.80;32.42;100485.47;4978999;28;20581;-68
2021/05/15 08:37:53;;;;;;;10.52;7.15;;;;;;;15.61;33.89;100485.03;4995616;28;20062;-67
2021/05/15 08:40:27;;;;;;;23.88;10.07;;;;;;;14.64;34.11;100486.91;4985090;28;20049;-68
2021/05/15 08:42:55;;;;;;;13.25;6.22;;;;;;;13.71;36.16;100485.56;4979288;28;20030;-68
2021/05/15 08:45:22;;;;;;;16.30;6.90;;;;;;;13.44;35.77;100485.38;4982482;28;20507;-68
2021/05/15 08:47:50;;;;;;;12.38;6.82;;;;;;;13.48;36.63;100490.34;4978897;28;20033;-68
2021/05/15 08:50:18;;;;;;;17.63;7.57;;;;;;;13.23;37.16;100490.09;4979365;28;20038;-68
2021/05/15 08:52:46;;;;;;;13.75;6.40;;;;;;;13.47;36.90;100491.31;4994486;28;20089;-68
2021/05/15 08:55:27;;;;;;;21.63;8.13;;;;;;;13.16;37.71;100494.84;4978581;28;20488;-68
2021/05/15 08:57:53;;;;;;;14.85;7.22;;;;;;;13.45;38.00;100484.44;4991964;28;20038;-68
2021/05/15 09:00:22;;;;;;;13.02;6.80;;;;;;;13.39;37.27;100490.91;4980658;28;20042;-68
2021/05/15 09:02:52;;;;;;;13.55;6.90;;;;;;;13.23;37.64;100495.34;4983937;28;20533;-68
2021/05/15 09:05:19;;;;;;;13.05;6.55;;;;;;;13.32;38.17;100492.19;4983020;28;20146;-68
2021/05/15 09:07:50;;;;;;;13.10;7.05;;;;;;;13.14;37.82;100493.22;4983579;28;20499;-68
2021/05/15 09:10:19;;;;;;;16.15;7.72;;;;;;;12.23;39.50;100491.16;4981839;28;20077;-69
2021/05/15 09:12:45;;;;;;;14.20;7.88;;;;;;;11.92;40.33;100493.69;4988512;28;20100;-68
2021/05/15 09:15:11;;;;;;;15.27;8.48;;;;;;;11.11;42.26;100502.03;4981935;28;20719;-69
2021/05/15 09:17:48;;;;;;;16.35;8.73;;;;;;;10.99;43.03;100506.06;4981655;28;20050;-68
2021/05/15 09:20:26;;;;;;;20.42;9.00;;;;;;;10.88;43.96;100500.50;4981682;28;20693;-69
2021/05/15 09:22:52;;;;;;;16.80;8.27;;;;;;;10.84;44.73;100504.19;4984027;28;20034;-69
2021/05/15 09:25:18;;;;;;;24.65;9.85;;;;;;;10.69;44.71;100504.88;4970542;28;20042;-68
2021/05/15 09:27:43;;;;;;;20.42;9.48;;;;;;;10.20;45.63;100503.56;4983089;28;20165;-68
2021/05/15 09:30:09;;;;;;;22.85;10.00;;;;;;;9.83;47.19;100508.69;4982629;28;20416;-68
2021/05/15 09:32:35;;;;;;;18.67;9.57;;;;;;;9.87;47.49;100503.25;4982970;28;20038;-68
2021/05/15 09:35:03;;;;;;;21.73;9.55;;;;;;;9.46;49.46;100500.63;4997949;28;20030;-68
2021/05/15 09:37:37;;;;;;;18.88;9.80;;;;;;;10.01;48.29;100507.88;4998125;28;20042;-69
2021/05/15 09:40:29;;;;;;;21.48;9.85;;;;;;;10.08;48.19;100498.03;4982106;28;20137;-68
2021/05/15 09:42:59;;;;;;;21.17;11.07;;;;;;;10.22;47.43;100498.28;4979893;28;20057;-68
2021/05/15 09:45:33;;;;;;;20.42;10.23;;;;;;;10.29;47.75;100494.47;4997566;28;20050;-68
2021/05/15 09:48:05;;;;;;;23.45;10.90;;;;;;;10.38;48.22;100490.59;4998525;28;20506;-68
2021/05/15 09:50:33;;;;;;;21.45;9.80;;;;;;;10.49;47.85;100483.13;4964096;28;20073;-68
2021/05/15 09:53:20;;;;;;;21.52;10.85;;;;;;;10.95;46.58;100483.63;4981516;28;20033;-69
2021/05/15 09:55:51;;;;;;;17.58;9.60;;;;;;;10.98;46.56;100491.31;4983911;28;20044;-68
2021/05/15 09:58:16;;;;;;;17.80;9.82;;;;;;;10.84;46.27;100488.50;4989387;28;20562;-68
2021/05/15 10:00:50;;;;;;;19.70;10.20;;;;;;;10.59;46.83;100491.38;4983028;28;20166;-68
2021/05/15 10:03:30;;;;;;;23.50;10.85;;;;;;;10.85;46.60;100479.72;4980084;28;20743;-68
2021/05/15 10:06:12;;;;;;;23.63;11.20;;;;;;;11.12;45.34;100477.56;4982006;28;20070;-68
2021/05/15 10:08:43;;;;;;;22.05;9.40;;;;;;;10.86;45.91;100475.34;4986882;28;20045;-68
2021/05/15 10:11:10;;;;;;;23.93;11.63;;;;;;;10.92;46.48;100482.91;4995183;28;20030;-68
2021/05/15 10:13:37;;;;;;;23.58;10.60;;;;;;;10.74;45.92;100468.91;4981570;28;20309;-68
2021/05/15 10:16:04;;;;;;;19.17;9.98;;;;;;;10.72;46.96;100483.81;4973076;28;20472;-68
2021/05/15 10:18:31;;;;;;;18.58;9.70;;;;;;;10.67;47.03;100464.91;4981829;28;20054;-69
2021/05/15 10:20:57;;;;;;;22.50;9.65;;;;;;;10.84;46.42;100467.59;4981213;28;20507;-69
2021/05/15 10:23:27;;;;;;;20.23;10.18;;;;;;;10.98;46.05;100465.16;4965535;28;20117;-69
2021/05/15 10:26:06;;;;;;;20.60;9.75;;;;;;;10.95;46.31;100473.16;4982492;28;20428;-68
2021/05/15 10:28:34;;;;;;;19.17;10.00;;;;;;;10.66;46.45;100463.19;4997057;28;20811;-68
2021/05/15 10:31:15;;;;;;;20.65;11.02;;;;;;;11.15;45.99;100461.72;4986373;28;20037;-68
2021/05/15 10:33:43;;;;;;;23.30;10.93;;;;;;;11.21;45.21;100455.34;4964397;28;20048;-68
2021/05/15 10:36:29;;;;;;;20.13;10.25;;;;;;;11.36;44.92;100459.81;4981805;28;20042;-72
2021/05/15 10:38:54;;;;;;;18.63;9.32;;;;;;;11.34;45.35;100459.03;4996938;28;20050;-68
2021/05/15 10:41:25;;;;;;;20.35;10.25;;;;;;;11.70;45.08;100457.25;4982910;28;20054;-69
2021/05/15 10:43:51;;;;;;;20.13;9.52;;;;;;;11.47;44.23;100448.81;4996700;28;20505;-68
2021/05/15 10:46:21;;;;;;;18.23;9.15;;;;;;;11.58;44.58;100441.25;4982266;28;20068;-69
2021/05/15 10:49:00;;;;;;;18.50;10.18;;;;;;;11.78;43.90;100440.28;4979250;28;20073;-69
2021/05/15 10:51:56;;;;;;;18.45;10.57;;;;;;;11.85;43.14;100433.78;4976708;28;20100;-68
2021/05/15 10:54:39;;;;;;;19.27;9.45;;;;;;;11.82;43.04;100426.09;4993985;28;20057;-68
2021/05/15 10:57:10;;;;;;;20.30;9.80;;;;;;;11.83;43.27;100427.78;4982279;28;20495;-68
2021/05/15 10:59:38;;;;;;;23.10;10.23;;;;;;;11.65;43.65;100431.31;5010921;28;20030;-68
2021/05/15 11:02:11;;;;;;;18.85;9.55;;;;;;;11.56;43.82;100429.19;4965392;28;20285;-69
2021/05/15 11:04:53;;;;;;;18.92;9.70;;;;;;;11.98;44.41;100420.06;4980764;28;20081;-69
2021/05/15 11:07:40;;;;;;;;;;;;;;;11.99;42.64;100421.72;4980875;28;20026;-68
2021/05/15 11:10:11;;;;;;;17.85;9.18;;;;;;;12.07;42.80;100415.16;4963608;28;19924;-68
2021/05/15 11:12:41;;;;;;;22.63;10.60;;;;;;;12.20;42.94;100414.47;4979830;28;20030;-68
2021/05/15 11:15:09;;;;;;;21.98;10.32;;;;;;;12.21;42.81;100419.66;4995830;28;20041;-68
2021/05/15 11:17:34;;;;;;;18.83;10.18;;;;;;;12.65;41.84;100410.28;4996127;28;20037;-68
2021/05/15 11:20:19;;;;;;;19.15;9.13;;;;;;;12.56;41.80;100401.16;4975820;28;20073;-68
2021/05/15 11:22:53;;;;;;;21.45;10.52;;;;;;;12.63;41.78;100397.25;4977413;28;21054;-69
2021/05/15 11:25:27;;;;;;;25.58;11.35;;;;;;;13.05;40.82;100380.03;4993664;28;20547;-68
2021/05/15 11:28:02;;;;;;;19.25;10.32;;;;;;;13.10;40.18;100377.97;4979150;28;20034;-68